createdAt,value
2023-04-19T00:00:39.778Z,102263.16
2023-04-19T00:03:08.605Z,102269.19
2023-04-19T00:05:38.420Z,102264.78
2023-04-19T00:08:07.301Z,102264.69
2023-04-19T00:10:36.077Z,102267.72
2023-04-19T00:13:04.274Z,102265.25
2023-04-19T00:15:35.106Z,102263.28
2023-04-19T00:18:03.759Z,102243.72
2023-04-19T00:20:31.668Z,102263.69
2023-04-19T00:22:59.629Z,102250.59
2023-04-19T00:25:28.457Z,102257.88
2023-04-19T00:27:56.454Z,102266.72
2023-04-19T00:30:24.609Z,102265.44
2023-04-19T00:32:54.771Z,102261.75
2023-04-19T00:35:25.941Z,102258.41
2023-04-19T00:37:54.093Z,102264.31
2023-04-19T00:40:22.185Z,102261.69
2023-04-19T00:42:50.210Z,102261.72
2023-04-19T00:45:18.762Z,102275.81
2023-04-19T00:47:46.828Z,102276.75
2023-04-19T00:50:16.857Z,102273.44
2023-04-19T00:52:45.977Z,102276.56
2023-04-19T00:55:14.630Z,102274.06
2023-04-19T00:57:42.754Z,102277.94
2023-04-19T01:00:11.992Z,102282.69
2023-04-19T01:02:40.137Z,102281.31
2023-04-19T01:05:08.843Z,102284.97
2023-04-19T01:07:38.499Z,102283.41
2023-04-19T01:10:07.228Z,102280.97
2023-04-19T01:12:35.450Z,102280.56
2023-04-19T01:15:05.338Z,102279.31
2023-04-19T01:17:34.207Z,102280.09
2023-04-19T01:20:03.347Z,102274.53
2023-04-19T01:22:33.301Z,102269.91
2023-04-19T01:25:01.770Z,102272.91
2023-04-19T01:27:29.648Z,102272.16
2023-04-19T01:29:58.788Z,102273.31
2023-04-19T01:32:28.112Z,102278.47
2023-04-19T01:34:57.463Z,102286.25
2023-04-19T01:37:25.465Z,102291.59
2023-04-19T01:39:56.333Z,102291.22
2023-04-19T01:42:24.388Z,102287.25
2023-04-19T01:44:52.392Z,102276.03
2023-04-19T01:47:21.072Z,102288.16
2023-04-19T01:49:49.106Z,102283.97
2023-04-19T01:52:18.766Z,102283.09
2023-04-19T01:54:46.815Z,102279.31
2023-04-19T01:57:18.824Z,102278.63
2023-04-19T01:59:47.405Z,102270.69
2023-04-19T02:02:15.735Z,102273.00
2023-04-19T02:04:44.174Z,102273.50
2023-04-19T02:07:12.437Z,102260.31
2023-04-19T02:09:40.631Z,102262.06
2023-04-19T02:12:08.891Z,102263.03
2023-04-19T02:14:38.213Z,102264.22
2023-04-19T02:17:06.035Z,102262.53
2023-04-19T02:19:34.022Z,102272.72
2023-04-19T02:22:01.989Z,102259.59
2023-04-19T02:24:29.967Z,102277.47
2023-04-19T02:26:58.405Z,102281.22
2023-04-19T02:29:26.453Z,102268.81
2023-04-19T02:31:55.940Z,102280.38
2023-04-19T02:34:23.980Z,102282.47
2023-04-19T02:36:53.699Z,102278.09
2023-04-19T02:39:21.765Z,102278.63
2023-04-19T02:41:50.343Z,102279.63
2023-04-19T02:44:18.606Z,102275.91
2023-04-19T02:46:50.146Z,102286.50
2023-04-19T02:49:20.179Z,102273.06
2023-04-19T02:51:48.854Z,102282.28
2023-04-19T02:54:16.883Z,102273.50
2023-04-19T02:56:46.362Z,102274.28
2023-04-19T02:59:15.578Z,102279.16
2023-04-19T03:01:44.135Z,102284.50
2023-04-19T03:04:13.072Z,102266.19
2023-04-19T03:06:44.587Z,102277.72
2023-04-19T03:09:13.778Z,102275.38
2023-04-19T03:11:41.869Z,102282.81
2023-04-19T03:14:09.929Z,102281.03
2023-04-19T03:16:39.450Z,102270.28
2023-04-19T03:19:07.605Z,102269.84
2023-04-19T03:21:41.432Z,102267.31
2023-04-19T03:24:11.245Z,102268.06
2023-04-19T03:26:42.905Z,102272.84
2023-04-19T03:29:11.056Z,102264.13
2023-04-19T03:31:48.051Z,102259.56
2023-04-19T03:34:16.777Z,102255.59
2023-04-19T03:36:47.871Z,102261.69
2023-04-19T03:39:17.228Z,102261.34
2023-04-19T03:41:48.809Z,102257.00
2023-04-19T03:44:33.268Z,102251.63
2023-04-19T03:47:03.428Z,102253.41
2023-04-19T03:49:35.690Z,102252.84
2023-04-19T03:52:06.150Z,102259.38
2023-04-19T03:54:36.513Z,102260.38
2023-04-19T03:57:07.544Z,102255.41
2023-04-19T03:59:39.270Z,102267.41
2023-04-19T04:02:07.570Z,102266.34
2023-04-19T04:04:36.072Z,102261.00
2023-04-19T04:07:04.162Z,102262.44
2023-04-19T04:09:32.686Z,102261.28
2023-04-19T04:12:03.035Z,102260.63
2023-04-19T04:14:32.194Z,102260.03
2023-04-19T04:17:01.442Z,102257.38
2023-04-19T04:19:29.436Z,102258.25
2023-04-19T04:21:57.473Z,102256.53
2023-04-19T04:24:27.987Z,102259.41
2023-04-19T04:27:12.875Z,102258.41
2023-04-19T04:29:43.930Z,102256.31
2023-04-19T04:32:14.436Z,102252.94
2023-04-19T04:34:43.489Z,102257.56
2023-04-19T04:37:22.265Z,102265.03
2023-04-19T04:39:50.750Z,102262.16
2023-04-19T04:42:21.694Z,102265.94
2023-04-19T04:44:50.931Z,102265.06
2023-04-19T04:47:18.977Z,102260.97
2023-04-19T04:49:53.007Z,102262.44
2023-04-19T04:52:21.334Z,102264.25
2023-04-19T04:55:00.280Z,102264.38
2023-04-19T04:57:34.613Z,102277.75
2023-04-19T05:00:05.009Z,102264.13
2023-04-19T05:02:38.018Z,102269.22
2023-04-19T05:05:07.175Z,102264.78
2023-04-19T05:07:35.026Z,102267.25
2023-04-19T05:10:03.956Z,102271.56
2023-04-19T05:12:43.213Z,102271.81
2023-04-19T05:15:13.209Z,102269.66
2023-04-19T05:17:46.366Z,102276.09
2023-04-19T05:20:15.523Z,102270.50
2023-04-19T05:22:44.860Z,102275.81
2023-04-19T05:25:13.509Z,102270.59
2023-04-19T05:27:43.445Z,102264.66
2023-04-19T05:30:12.621Z,102265.75
2023-04-19T05:32:44.376Z,102273.06
2023-04-19T05:35:14.731Z,102269.28
2023-04-19T05:37:42.689Z,102265.72
2023-04-19T05:40:11.677Z,102268.13
2023-04-19T05:42:39.845Z,102262.16
2023-04-19T05:45:11.234Z,102254.03
2023-04-19T05:47:40.784Z,102252.38
2023-04-19T05:50:27.753Z,102252.66
2023-04-19T05:53:15.761Z,102265.22
2023-04-19T05:55:45.573Z,102268.84
2023-04-19T05:58:13.854Z,102263.13
2023-04-19T06:00:43.765Z,102263.66
2023-04-19T06:03:15.129Z,102253.47
2023-04-19T06:05:43.687Z,102251.50
2023-04-19T06:08:12.177Z,102250.34
2023-04-19T06:10:54.107Z,102251.25
2023-04-19T06:13:25.557Z,102245.41
2023-04-19T06:15:57.551Z,102255.06
2023-04-19T06:18:25.900Z,102245.84
2023-04-19T06:20:54.448Z,102246.94
2023-04-19T06:23:22.415Z,102253.41
2023-04-19T06:25:50.430Z,102243.28
2023-04-19T06:28:18.413Z,102241.91
2023-04-19T06:30:46.349Z,102231.47
2023-04-19T06:33:15.646Z,102238.50
2023-04-19T06:35:43.849Z,102242.81
2023-04-19T06:38:11.686Z,102246.41
2023-04-19T06:40:39.635Z,102230.38
2023-04-19T06:43:07.607Z,102229.22
2023-04-19T06:45:36.353Z,102230.38
2023-04-19T06:48:04.703Z,102230.28
2023-04-19T06:50:34.086Z,102226.44
2023-04-19T06:53:04.578Z,102214.22
2023-04-19T06:55:32.862Z,102224.03
2023-04-19T06:58:00.858Z,102219.19
2023-04-19T07:00:29.112Z,102211.84
2023-04-19T07:02:59.912Z,102213.97
2023-04-19T07:05:28.136Z,102212.16
2023-04-19T07:07:57.548Z,102217.13
2023-04-19T07:10:25.958Z,102215.25
2023-04-19T07:12:54.199Z,102223.91
2023-04-19T07:15:22.300Z,102224.75
2023-04-19T07:17:50.265Z,102219.31
2023-04-19T07:20:18.224Z,102207.09
2023-04-19T07:22:46.188Z,102205.16
2023-04-19T07:25:15.789Z,102206.44
2023-04-19T07:27:43.939Z,102200.41
2023-04-19T07:30:12.647Z,102195.19
2023-04-19T07:32:41.305Z,102191.22
2023-04-19T07:35:10.118Z,102201.56
2023-04-19T07:37:38.031Z,102194.16
2023-04-19T07:40:07.344Z,102190.31
2023-04-19T07:42:36.575Z,102188.13
2023-04-19T07:45:05.933Z,102187.94
2023-04-19T07:47:33.839Z,102186.25
2023-04-19T07:50:01.916Z,102182.03
2023-04-19T07:52:30.031Z,102186.75
2023-04-19T07:54:58.091Z,102181.88
2023-04-19T07:57:26.424Z,102177.44
2023-04-19T07:59:58.075Z,102175.72
2023-04-19T08:02:28.194Z,102175.88
2023-04-19T08:04:56.709Z,102176.50
2023-04-19T08:07:26.254Z,102174.22
2023-04-19T08:09:54.422Z,102165.41
2023-04-19T08:12:34.599Z,102172.31
2023-04-19T08:15:29.593Z,102166.16
2023-04-19T08:17:57.775Z,102143.09
2023-04-19T08:20:26.088Z,102166.72
2023-04-19T08:22:54.660Z,102155.59
2023-04-19T08:25:26.854Z,102146.34
2023-04-19T08:27:54.658Z,102154.00
2023-04-19T08:30:24.122Z,102155.06
2023-04-19T08:32:52.761Z,102155.47
2023-04-19T08:35:22.306Z,102161.97
2023-04-19T08:37:50.290Z,102139.09
2023-04-19T08:40:18.734Z,102135.09
2023-04-19T08:42:46.584Z,102136.31
2023-04-19T08:45:27.890Z,102130.41
2023-04-19T08:48:01.841Z,102136.19
2023-04-19T08:50:36.047Z,102145.28
2023-04-19T08:55:58.423Z,102133.03
2023-04-19T08:58:44.461Z,102123.81
2023-04-19T09:04:03.342Z,102134.44
2023-04-19T09:06:41.799Z,102125.03
2023-04-19T09:11:51.578Z,102129.16
2023-04-19T09:14:21.746Z,102119.06
2023-04-19T09:16:52.007Z,102105.13
2023-04-19T09:19:25.317Z,102105.66
2023-04-19T09:21:54.563Z,102112.13
2023-04-19T09:27:12.252Z,102107.41
2023-04-19T09:29:40.461Z,102093.69
2023-04-19T09:32:08.496Z,102098.66
2023-04-19T09:34:52.698Z,102093.59
2023-04-19T09:37:33.110Z,102090.16
2023-04-19T09:40:23.616Z,102080.97
2023-04-19T09:48:04.267Z,102054.13
2023-04-19T09:50:39.091Z,102059.09
2023-04-19T09:53:18.856Z,102049.56
2023-04-19T09:55:59.732Z,102050.25
2023-04-19T09:58:41.772Z,102035.47
2023-04-19T10:01:17.924Z,102034.94
2023-04-19T10:03:50.121Z,102038.50
2023-04-19T10:08:55.062Z,102017.97
2023-04-19T10:11:25.199Z,102014.03
2023-04-19T10:13:57.220Z,102018.50
2023-04-19T10:16:26.202Z,102011.66
2023-04-19T10:18:55.009Z,102006.81
2023-04-19T10:21:25.054Z,102002.53
2023-04-19T10:23:52.967Z,102002.72
2023-04-19T10:26:20.892Z,101983.41
2023-04-19T10:28:49.461Z,101989.41
2023-04-19T10:31:23.591Z,101977.81
2023-04-19T10:33:52.650Z,101974.31
2023-04-19T10:36:22.446Z,101976.25
2023-04-19T10:38:53.604Z,101967.09
2023-04-19T10:41:22.785Z,101965.75
2023-04-19T10:44:11.101Z,101947.88
2023-04-19T10:46:41.146Z,101950.84
2023-04-19T10:49:09.939Z,101960.81
2023-04-19T10:51:39.811Z,101945.31
2023-04-19T10:54:10.486Z,101941.91
2023-04-19T10:57:10.214Z,101953.38
2023-04-19T10:59:38.997Z,101923.25
2023-04-19T11:02:32.736Z,101925.97
2023-04-19T11:05:04.183Z,101939.25
2023-04-19T11:07:43.071Z,101933.28
2023-04-19T11:10:12.832Z,101916.03
2023-04-19T11:12:45.333Z,101887.50
2023-04-19T11:15:13.250Z,101898.97
2023-04-19T11:17:42.523Z,101915.91
2023-04-19T11:20:12.061Z,101901.09
2023-04-19T11:22:42.074Z,101903.06
2023-04-19T11:25:13.085Z,101906.13
2023-04-19T11:27:42.871Z,101879.91
2023-04-19T11:30:13.359Z,101888.53
2023-04-19T11:32:48.307Z,101886.78
2023-04-19T11:35:20.120Z,101877.34
2023-04-19T11:37:50.735Z,101871.38
2023-04-19T11:40:21.262Z,101872.16
2023-04-19T11:42:55.495Z,101881.41
2023-04-19T11:45:31.156Z,101893.31
2023-04-19T11:48:01.767Z,101874.53
2023-04-19T11:50:37.894Z,101860.47
2023-04-19T11:53:14.791Z,101855.91
2023-04-19T11:55:48.596Z,101866.84
2023-04-19T11:58:31.155Z,101854.84
2023-04-19T12:01:04.093Z,101862.66
2023-04-19T12:03:32.135Z,101867.47
2023-04-19T12:06:03.372Z,101869.56
2023-04-19T12:08:32.923Z,101843.81
2023-04-19T12:11:03.423Z,101864.25
2023-04-19T12:13:32.364Z,101864.50
2023-04-19T12:16:01.501Z,101854.84
2023-04-19T12:18:29.568Z,101843.63
2023-04-19T12:20:58.315Z,101845.44
2023-04-19T12:23:28.506Z,101845.50
2023-04-19T12:25:56.487Z,101855.56
2023-04-19T12:28:25.641Z,101834.72
2023-04-19T12:30:53.967Z,101826.38
2023-04-19T12:33:23.724Z,101830.13
2023-04-19T12:35:51.874Z,101825.31
2023-04-19T12:38:19.653Z,101832.19
2023-04-19T12:40:47.559Z,101832.97
2023-04-19T12:43:15.393Z,101830.28
2023-04-19T12:45:44.663Z,101822.34
2023-04-19T12:48:12.523Z,101821.47
2023-04-19T12:50:40.709Z,101834.69
2023-04-19T12:53:09.495Z,101836.69
2023-04-19T12:55:37.406Z,101825.00
2023-04-19T12:58:05.277Z,101824.38
2023-04-19T13:00:33.730Z,101802.16
2023-04-19T13:03:03.596Z,101823.81
2023-04-19T13:05:31.667Z,101798.91
2023-04-19T13:08:00.281Z,101798.31
2023-04-19T13:10:28.547Z,101792.72
2023-04-19T13:12:56.616Z,101801.44
2023-04-19T13:15:24.708Z,101802.19
2023-04-19T13:17:52.764Z,101803.03
2023-04-19T13:20:22.068Z,101792.44
2023-04-19T13:22:49.958Z,101791.94
2023-04-19T13:25:18.100Z,101803.56
2023-04-19T13:27:46.925Z,101797.47
2023-04-19T13:30:15.748Z,101800.06
2023-04-19T13:32:44.306Z,101800.91
2023-04-19T13:35:12.435Z,101787.19
2023-04-19T13:37:44.216Z,101793.25
2023-04-19T13:40:19.360Z,101773.53
2023-04-19T13:42:47.937Z,101771.69
2023-04-19T13:45:15.762Z,101768.03
2023-04-19T13:47:43.638Z,101771.59
2023-04-19T13:50:12.905Z,101768.94
2023-04-19T13:52:42.293Z,101758.41
2023-04-19T13:55:10.920Z,101769.88
2023-04-19T13:57:39.073Z,101769.84
2023-04-19T14:00:08.931Z,101775.94
2023-04-19T14:02:37.186Z,101764.94
2023-04-19T14:05:05.898Z,101772.59
2023-04-19T14:07:33.866Z,101780.69
2023-04-19T14:10:03.370Z,101783.31
2023-04-19T14:12:31.228Z,101779.09
2023-04-19T14:14:59.225Z,101761.84
2023-04-19T14:17:27.651Z,101748.03
2023-04-19T14:19:56.791Z,101755.75
2023-04-19T14:22:24.771Z,101763.47
2023-04-19T14:24:52.777Z,101743.75
2023-04-19T14:27:22.039Z,101747.41
2023-04-19T14:29:49.944Z,101747.13
2023-04-19T14:32:25.936Z,101734.31
2023-04-19T14:34:56.324Z,101737.25
2023-04-19T14:37:25.239Z,101725.44
2023-04-19T14:39:53.546Z,101719.06
2023-04-19T14:42:23.215Z,101720.06
2023-04-19T14:44:52.830Z,101728.75
2023-04-19T14:47:21.120Z,101736.75
2023-04-19T14:49:49.377Z,101720.84
2023-04-19T14:52:17.408Z,101737.84
2023-04-19T14:54:46.117Z,101714.72
2023-04-19T14:57:17.789Z,101711.06
2023-04-19T14:59:47.169Z,101698.53
2023-04-19T15:02:17.414Z,101710.75
2023-04-19T15:04:46.560Z,101714.84
2023-04-19T15:07:15.600Z,101706.69
2023-04-19T15:09:44.305Z,101714.84
2023-04-19T15:12:12.980Z,101704.59
2023-04-19T15:14:41.247Z,101709.28
2023-04-19T15:17:11.278Z,101711.28
2023-04-19T15:19:40.220Z,101701.50
2023-04-19T15:22:08.800Z,101701.00
2023-04-19T15:24:36.907Z,101715.44
2023-04-19T15:27:07.631Z,101705.97
2023-04-19T15:29:36.708Z,101703.50
2023-04-19T15:32:05.016Z,101699.47
2023-04-19T15:34:34.384Z,101709.09
2023-04-19T15:37:05.895Z,101692.72
2023-04-19T15:39:33.918Z,101700.16
2023-04-19T15:42:03.210Z,101690.63
2023-04-19T15:44:31.247Z,101699.16
2023-04-19T15:46:59.379Z,101687.81
2023-04-19T15:49:27.488Z,101701.41
2023-04-19T15:51:57.159Z,101710.47
2023-04-19T15:54:25.303Z,101713.56
2023-04-19T15:56:53.494Z,101693.91
2023-04-19T15:59:21.807Z,101705.53
2023-04-19T16:01:50.450Z,101679.59
2023-04-19T16:04:18.672Z,101690.31
2023-04-19T16:06:47.016Z,101675.59
2023-04-19T16:09:16.610Z,101672.44
2023-04-19T16:11:44.699Z,101670.00
2023-04-19T16:14:12.707Z,101674.03
2023-04-19T16:16:40.646Z,101694.72
2023-04-19T16:19:08.791Z,101686.88
2023-04-19T16:21:36.853Z,101677.75
2023-04-19T16:24:04.920Z,101685.75
2023-04-19T16:26:34.529Z,101685.09
2023-04-19T16:29:02.674Z,101672.97
2023-04-19T16:31:30.826Z,101679.25
2023-04-19T16:33:58.781Z,101677.88
2023-04-19T16:36:26.969Z,101680.88
2023-04-19T16:38:54.726Z,101680.84
2023-04-19T16:41:22.598Z,101672.16
2023-04-19T16:43:51.809Z,101683.16
2023-04-19T16:46:19.776Z,101693.03
2023-04-19T16:48:47.628Z,101682.97
2023-04-19T16:51:15.803Z,101676.81
2023-04-19T16:53:45.724Z,101675.53
2023-04-19T16:56:14.270Z,101676.72
2023-04-19T16:58:42.518Z,101680.13
2023-04-19T17:01:12.149Z,101681.53
2023-04-19T17:03:43.537Z,101675.88
2023-04-19T17:06:11.595Z,101672.25
2023-04-19T17:08:39.758Z,101680.28
2023-04-19T17:11:08.116Z,101686.81
2023-04-19T17:13:36.225Z,101679.97
2023-04-19T17:16:04.551Z,101691.53
2023-04-19T17:18:34.091Z,101686.00
2023-04-19T17:21:02.652Z,101692.44
2023-04-19T17:23:30.953Z,101688.25
2023-04-19T17:25:59.132Z,101696.59
2023-04-19T17:28:28.408Z,101692.34
2023-04-19T17:30:56.859Z,101704.53
2023-04-19T17:33:24.836Z,101695.06
2023-04-19T17:35:54.585Z,101701.06
2023-04-19T17:38:22.728Z,101696.34
2023-04-19T17:40:51.079Z,101692.06
2023-04-19T17:43:20.926Z,101703.50
2023-04-19T17:45:49.330Z,101698.94
2023-04-19T17:48:17.347Z,101692.94
2023-04-19T17:50:45.626Z,101692.56
2023-04-19T17:53:15.584Z,101701.47
2023-04-19T17:55:43.731Z,101701.63
2023-04-19T17:58:12.038Z,101701.41
2023-04-19T18:00:40.070Z,101705.69
2023-04-19T18:03:11.085Z,101700.97
2023-04-19T18:05:39.986Z,101705.75
2023-04-19T18:08:08.388Z,101696.34
2023-04-19T18:10:37.926Z,101702.69
2023-04-19T18:13:06.128Z,101703.78
2023-04-19T18:15:34.315Z,101699.16
2023-04-19T18:18:02.512Z,101712.06
2023-04-19T18:20:34.047Z,101711.09
2023-04-19T18:23:02.279Z,101706.91
2023-04-19T18:25:30.414Z,101710.50
2023-04-19T18:27:59.841Z,101702.78
2023-04-19T18:30:28.211Z,101715.59
2023-04-19T18:32:56.367Z,101714.50
2023-04-19T18:35:24.750Z,101713.13
2023-04-19T18:37:53.005Z,101714.59
2023-04-19T18:40:21.404Z,101716.16
2023-04-19T18:42:49.481Z,101718.25
2023-04-19T18:45:19.154Z,101714.22
2023-04-19T18:47:48.336Z,101720.41
2023-04-19T18:50:19.506Z,101713.38
2023-04-19T18:52:47.983Z,101709.25
2023-04-19T18:55:16.192Z,101711.81
2023-04-19T18:57:44.263Z,101743.41
2023-04-19T19:00:13.197Z,101727.75
2023-04-19T19:02:43.986Z,101733.31
2023-04-19T19:05:15.453Z,101740.59
2023-04-19T19:07:44.109Z,101720.34
2023-04-19T19:10:19.132Z,101728.91
2023-04-19T19:12:50.099Z,101729.94
2023-04-19T19:15:18.480Z,101728.63
2023-04-19T19:17:50.341Z,101738.44
2023-04-19T19:20:22.654Z,101723.91
2023-04-19T19:22:51.508Z,101713.13
2023-04-19T19:25:20.134Z,101743.78
2023-04-19T19:28:05.726Z,101727.22
2023-04-19T19:30:35.734Z,101723.09
2023-04-19T19:33:05.353Z,101725.13
2023-04-19T19:35:33.887Z,101717.72
2023-04-19T19:38:02.536Z,101721.69
2023-04-19T19:40:32.399Z,101722.72
2023-04-19T19:43:01.904Z,101711.69
2023-04-19T19:45:30.636Z,101718.41
2023-04-19T19:48:00.605Z,101720.06
2023-04-19T19:53:02.154Z,101723.78
2023-04-19T19:55:39.480Z,101742.91
2023-04-19T19:58:23.869Z,101753.47
2023-04-19T20:00:56.430Z,101722.81
2023-04-19T20:03:36.219Z,101708.22
2023-04-19T20:08:44.374Z,101695.06
2023-04-19T20:11:12.914Z,101677.59
2023-04-19T20:13:40.881Z,101663.41
2023-04-19T20:16:10.049Z,101674.16
2023-04-19T20:18:39.236Z,101664.22
2023-04-19T20:21:09.605Z,101664.84
2023-04-19T20:23:39.439Z,101666.69
2023-04-19T20:26:07.625Z,101662.69
2023-04-19T20:28:36.544Z,101667.34
2023-04-19T20:31:04.614Z,101664.19
2023-04-19T20:33:33.174Z,101670.78
2023-04-19T20:36:01.931Z,101671.28
2023-04-19T20:38:34.751Z,101667.84
2023-04-19T20:41:03.179Z,101666.56
2023-04-19T20:43:32.331Z,101669.22
2023-04-19T20:46:01.363Z,101667.00
2023-04-19T20:48:33.166Z,101658.78
2023-04-19T20:51:01.502Z,101669.41
2023-04-19T20:53:30.099Z,101659.38
2023-04-19T20:55:59.449Z,101649.97
2023-04-19T20:58:29.137Z,101650.56
2023-04-19T21:00:58.521Z,101647.63
2023-04-19T21:03:30.837Z,101635.34
2023-04-19T21:06:00.385Z,101640.47
2023-04-19T21:08:31.806Z,101633.31
2023-04-19T21:11:01.891Z,101636.69
2023-04-19T21:13:30.252Z,101619.41
2023-04-19T21:15:58.755Z,101624.16
2023-04-19T21:18:30.190Z,101616.16
2023-04-19T21:21:00.770Z,101622.50
2023-04-19T21:23:33.964Z,101619.19
2023-04-19T21:26:07.926Z,101607.19
2023-04-19T21:28:36.437Z,101585.19
2023-04-19T21:31:04.446Z,101596.72
2023-04-19T21:33:32.553Z,101594.63
2023-04-19T21:36:00.619Z,101597.91
2023-04-19T21:38:29.134Z,101592.28
2023-04-19T21:40:57.463Z,101588.06
2023-04-19T21:43:26.895Z,101579.03
2023-04-19T21:45:55.350Z,101578.91
2023-04-19T21:48:30.553Z,101580.41
2023-04-19T21:50:59.108Z,101574.22
2023-04-19T21:53:29.530Z,101577.81
2023-04-19T21:55:57.516Z,101568.31
2023-04-19T21:58:26.891Z,101570.53
2023-04-19T22:00:54.742Z,101574.75
2023-04-19T22:03:23.025Z,101563.16
2023-04-19T22:05:51.190Z,101580.75
2023-04-19T22:08:19.278Z,101568.34
2023-04-19T22:11:04.128Z,101565.78
2023-04-19T22:13:33.801Z,101564.78
2023-04-19T22:16:02.408Z,101556.56
2023-04-19T22:18:31.230Z,101557.13
2023-04-19T22:20:59.126Z,101557.59
2023-04-19T22:23:27.013Z,101557.94
2023-04-19T22:25:56.166Z,101552.38
2023-04-19T22:28:39.104Z,101558.38
2023-04-19T22:31:15.496Z,101545.56
2023-04-19T22:33:53.627Z,101547.88
2023-04-19T22:36:21.599Z,101547.03
2023-04-19T22:38:50.046Z,101541.69
2023-04-19T22:41:17.961Z,101544.44
2023-04-19T22:43:45.984Z,101527.63
2023-04-19T22:46:15.308Z,101527.50
2023-04-19T22:48:43.257Z,101527.22
2023-04-19T22:51:11.618Z,101525.69
2023-04-19T22:53:39.456Z,101522.06
2023-04-19T22:56:07.549Z,101532.28
2023-04-19T22:58:35.409Z,101545.06
2023-04-19T23:01:04.138Z,101536.00
2023-04-19T23:03:34.421Z,101531.72
2023-04-19T23:06:03.694Z,101529.03
2023-04-19T23:08:33.401Z,101513.28
2023-04-19T23:11:01.411Z,101517.38
2023-04-19T23:13:29.669Z,101513.53
2023-04-19T23:15:58.397Z,101511.69
2023-04-19T23:18:26.446Z,101529.03
2023-04-19T23:21:00.370Z,101527.19
2023-04-19T23:23:28.712Z,101524.84
2023-04-19T23:25:56.779Z,101530.19
2023-04-19T23:28:24.656Z,101522.59
2023-04-19T23:30:52.825Z,101519.91
2023-04-19T23:33:20.950Z,101529.94
2023-04-19T23:35:48.890Z,101534.28
2023-04-19T23:38:18.937Z,101524.41
2023-04-19T23:40:46.967Z,101532.22
2023-04-19T23:43:15.034Z,101526.63
2023-04-19T23:45:43.042Z,101526.75
2023-04-19T23:48:10.986Z,101528.88
2023-04-19T23:50:39.056Z,101535.13
2023-04-19T23:53:07.246Z,101528.78
2023-04-19T23:55:36.628Z,101524.69
2023-04-19T23:58:04.690Z,101512.66
